createdAt,value
2023-05-14T00:01:34.415Z,13.60
2023-05-14T00:04:03.250Z,13.60
2023-05-14T00:06:32.043Z,13.60
2023-05-14T00:09:02.128Z,13.50
2023-05-14T00:11:30.800Z,13.50
2023-05-14T00:13:59.443Z,13.50
2023-05-14T00:16:28.075Z,13.50
2023-05-14T00:18:57.193Z,13.60
2023-05-14T00:21:26.025Z,13.60
2023-05-14T00:23:54.758Z,13.50
2023-05-14T00:26:24.837Z,13.50
2023-05-14T00:28:53.629Z,13.50
2023-05-14T00:31:22.357Z,13.60
2023-05-14T00:33:51.030Z,13.50
2023-05-14T00:36:19.681Z,13.50
2023-05-14T00:38:48.345Z,13.50
2023-05-14T00:41:17.029Z,13.50
2023-05-14T00:43:47.172Z,13.40
2023-05-14T00:46:17.402Z,13.40
2023-05-14T00:48:46.966Z,13.40
2023-05-14T00:51:15.912Z,13.40
2023-05-14T00:53:44.814Z,13.50
2023-05-14T00:56:14.789Z,13.50
2023-05-14T00:58:43.510Z,13.50
2023-05-14T01:01:15.370Z,13.50
2023-05-14T01:03:45.338Z,13.40
2023-05-14T01:06:25.254Z,13.40
2023-05-14T01:09:04.595Z,13.30
2023-05-14T01:11:41.808Z,13.30
2023-05-14T01:14:21.665Z,13.20
2023-05-14T01:16:57.709Z,13.20
2023-05-14T01:19:41.076Z,13.10
2023-05-14T01:22:12.138Z,13.20
2023-05-14T01:24:41.689Z,13.10
2023-05-14T01:27:19.628Z,13.20
2023-05-14T01:29:58.234Z,13.20
2023-05-14T01:32:29.610Z,13.20
2023-05-14T01:35:02.649Z,13.20
2023-05-14T01:37:34.193Z,13.20
2023-05-14T01:40:04.158Z,13.20
2023-05-14T01:42:34.306Z,13.20
2023-05-14T01:45:04.175Z,13.10
2023-05-14T01:47:33.140Z,13.10
2023-05-14T01:50:01.828Z,13.10
2023-05-14T01:52:30.531Z,13.00
2023-05-14T01:55:00.704Z,13.00
2023-05-14T01:57:29.427Z,13.00
2023-05-14T01:59:58.114Z,13.00
2023-05-14T02:02:27.050Z,13.00
2023-05-14T02:04:55.945Z,13.00
2023-05-14T02:07:24.650Z,12.90
2023-05-14T02:09:54.669Z,12.80
2023-05-14T02:12:24.796Z,12.80
2023-05-14T02:14:53.478Z,12.90
2023-05-14T02:17:22.178Z,12.90
2023-05-14T02:19:50.829Z,12.80
2023-05-14T02:22:19.871Z,12.80
2023-05-14T02:24:49.768Z,12.90
2023-05-14T02:27:20.121Z,12.90
2023-05-14T02:29:51.170Z,12.80
2023-05-14T02:32:19.896Z,12.80
2023-05-14T02:34:48.601Z,12.80
2023-05-14T02:37:17.273Z,12.70
2023-05-14T02:39:45.926Z,12.80
2023-05-14T02:42:14.620Z,12.80
2023-05-14T02:44:43.310Z,12.70
2023-05-14T02:47:14.404Z,12.50
2023-05-14T02:49:43.138Z,12.30
2023-05-14T02:52:11.935Z,12.30
2023-05-14T02:54:40.655Z,12.30
2023-05-14T02:57:09.331Z,12.30
2023-05-14T02:59:38.134Z,12.20
2023-05-14T03:02:07.750Z,12.00
2023-05-14T03:04:38.376Z,12.00
2023-05-14T03:07:07.335Z,12.00
2023-05-14T03:09:38.113Z,12.00
2023-05-14T03:12:08.831Z,12.00
2023-05-14T03:14:37.475Z,12.10
2023-05-14T03:17:06.745Z,12.00
2023-05-14T03:19:35.563Z,11.90
2023-05-14T03:22:06.508Z,11.90
2023-05-14T03:24:36.363Z,11.90
2023-05-14T03:27:05.473Z,11.80
2023-05-14T03:29:34.182Z,11.70
2023-05-14T03:32:03.191Z,11.80
2023-05-14T03:34:31.957Z,11.80
2023-05-14T03:37:00.855Z,11.60
2023-05-14T03:39:31.038Z,11.60
2023-05-14T03:41:59.785Z,11.60
2023-05-14T03:44:28.679Z,11.50
2023-05-14T03:46:57.353Z,11.40
2023-05-14T03:49:27.327Z,11.50
2023-05-14T03:51:57.447Z,11.50
2023-05-14T03:54:26.751Z,11.40
2023-05-14T03:56:57.311Z,11.40
2023-05-14T03:59:26.162Z,11.40
2023-05-14T04:01:55.785Z,11.40
2023-05-14T04:04:24.904Z,11.40
2023-05-14T04:06:53.679Z,11.40
2023-05-14T04:09:24.278Z,11.40
2023-05-14T04:11:53.414Z,11.50
2023-05-14T04:14:27.072Z,11.50
2023-05-14T04:16:55.991Z,11.40
2023-05-14T04:19:24.969Z,11.50
2023-05-14T04:21:53.913Z,11.50
2023-05-14T04:24:23.752Z,11.50
2023-05-14T04:26:52.753Z,11.60
2023-05-14T04:29:21.466Z,11.60
2023-05-14T04:31:52.859Z,11.50
2023-05-14T04:34:21.592Z,11.50
2023-05-14T04:36:50.343Z,11.60
2023-05-14T04:39:19.236Z,11.60
2023-05-14T04:41:50.241Z,11.60
2023-05-14T04:44:22.098Z,11.60
2023-05-14T04:46:52.918Z,11.60
2023-05-14T04:49:22.797Z,11.50
2023-05-14T04:51:51.639Z,11.60
2023-05-14T04:54:29.518Z,11.50
2023-05-14T04:57:03.082Z,11.40
2023-05-14T04:59:31.918Z,11.40
2023-05-14T05:02:02.362Z,11.40
2023-05-14T05:04:32.457Z,11.40
2023-05-14T05:07:03.051Z,11.50
2023-05-14T05:09:32.110Z,11.60
2023-05-14T05:12:01.636Z,11.60
2023-05-14T05:14:30.281Z,11.60
2023-05-14T05:16:59.059Z,11.60
2023-05-14T05:19:42.249Z,11.70
2023-05-14T05:22:14.137Z,11.60
2023-05-14T05:24:42.941Z,11.60
2023-05-14T05:27:11.644Z,11.60
2023-05-14T05:29:40.830Z,11.60
2023-05-14T05:32:14.065Z,11.70
2023-05-14T05:34:44.796Z,11.80
2023-05-14T05:37:15.352Z,11.80
2023-05-14T05:39:44.598Z,11.90
2023-05-14T05:42:13.487Z,11.80
2023-05-14T05:44:45.062Z,11.80
2023-05-14T05:47:15.676Z,11.90
2023-05-14T05:49:46.316Z,11.90
2023-05-14T05:52:21.419Z,11.90
2023-05-14T05:54:50.756Z,12.00
2023-05-14T05:57:24.548Z,12.10
2023-05-14T05:59:55.690Z,12.10
2023-05-14T06:02:25.716Z,12.10
2023-05-14T06:04:58.034Z,12.20
2023-05-14T06:07:28.002Z,12.20
2023-05-14T06:09:56.627Z,12.30
2023-05-14T06:12:25.940Z,12.30
2023-05-14T06:14:57.873Z,12.30
2023-05-14T06:17:29.285Z,12.40
2023-05-14T06:19:59.374Z,12.50
2023-05-14T06:22:28.444Z,12.50
2023-05-14T06:24:57.066Z,12.60
2023-05-14T06:27:25.839Z,12.60
2023-05-14T06:29:55.187Z,12.60
2023-05-14T06:32:25.509Z,12.70
2023-05-14T06:34:54.596Z,12.80
2023-05-14T06:37:24.953Z,12.80
2023-05-14T06:39:55.220Z,12.90
2023-05-14T06:42:25.262Z,13.00
2023-05-14T06:44:54.655Z,13.10
2023-05-14T06:47:24.863Z,13.10
2023-05-14T06:49:54.141Z,13.10
2023-05-14T06:52:25.452Z,13.20
2023-05-14T06:54:54.392Z,13.30
2023-05-14T06:57:23.151Z,13.30
2023-05-14T06:59:52.314Z,13.30
2023-05-14T07:02:21.380Z,13.40
2023-05-14T07:04:50.700Z,13.50
2023-05-14T07:07:21.319Z,13.60
2023-05-14T07:09:51.865Z,13.60
2023-05-14T07:12:22.717Z,13.70
2023-05-14T07:14:53.971Z,13.70
2023-05-14T07:17:22.959Z,13.80
2023-05-14T07:19:51.787Z,13.90
2023-05-14T07:22:23.098Z,13.80
2023-05-14T07:24:55.954Z,14.00
2023-05-14T07:27:24.936Z,14.00
2023-05-14T07:29:55.080Z,14.10
2023-05-14T07:32:25.538Z,14.20
2023-05-14T07:34:54.309Z,14.40
2023-05-14T07:37:24.158Z,14.40
2023-05-14T07:39:56.249Z,14.40
2023-05-14T07:42:35.981Z,14.50
2023-05-14T07:45:09.659Z,14.50
2023-05-14T07:47:38.821Z,14.60
2023-05-14T07:50:12.136Z,14.60
2023-05-14T07:52:45.617Z,14.70
2023-05-14T07:55:17.879Z,14.90
2023-05-14T07:57:46.830Z,14.80
2023-05-14T08:00:16.834Z,14.90
2023-05-14T08:02:46.458Z,15.10
2023-05-14T08:05:15.411Z,15.20
2023-05-14T08:07:44.102Z,15.30
2023-05-14T08:10:12.977Z,15.10
2023-05-14T08:12:43.043Z,15.40
2023-05-14T08:15:12.343Z,15.50
2023-05-14T08:17:41.195Z,15.70
2023-05-14T08:20:13.345Z,15.60
2023-05-14T08:22:42.946Z,15.60
2023-05-14T08:25:12.225Z,15.40
2023-05-14T08:27:42.940Z,15.20
2023-05-14T08:30:13.395Z,15.10
2023-05-14T08:32:42.889Z,15.00
2023-05-14T08:35:12.247Z,15.00
2023-05-14T08:37:41.089Z,15.00
2023-05-14T08:40:11.800Z,15.00
2023-05-14T08:42:44.999Z,15.00
2023-05-14T08:45:19.565Z,14.90
2023-05-14T08:47:52.039Z,15.00
2023-05-14T08:50:23.036Z,15.00
2023-05-14T08:52:52.966Z,15.10
2023-05-14T08:55:22.579Z,15.20
2023-05-14T08:57:52.798Z,15.20
2023-05-14T09:00:23.178Z,15.40
2023-05-14T09:02:53.545Z,15.50
2023-05-14T09:05:24.811Z,15.60
2023-05-14T09:07:53.749Z,16.10
2023-05-14T09:10:23.679Z,16.60
2023-05-14T09:12:54.157Z,16.70
2023-05-14T09:15:23.867Z,16.90
2023-05-14T09:17:53.306Z,17.00
2023-05-14T09:20:23.539Z,17.10
2023-05-14T09:22:55.436Z,17.30
2023-05-14T09:25:29.155Z,17.40
2023-05-14T09:28:00.200Z,17.50
2023-05-14T09:30:32.258Z,17.70
2023-05-14T09:33:01.755Z,17.70
2023-05-14T09:35:32.440Z,17.60
2023-05-14T09:38:01.251Z,17.30
2023-05-14T09:40:30.218Z,17.00
2023-05-14T09:43:01.970Z,16.80
2023-05-14T09:45:31.805Z,16.70
2023-05-14T09:48:02.609Z,16.70
2023-05-14T09:50:31.575Z,16.70
2023-05-14T09:53:01.952Z,16.70
2023-05-14T09:55:32.488Z,16.70
2023-05-14T09:58:11.931Z,16.70
2023-05-14T10:00:45.050Z,16.80
2023-05-14T10:03:19.633Z,16.90
2023-05-14T10:05:52.316Z,16.90
2023-05-14T10:08:29.095Z,17.00
2023-05-14T10:11:04.805Z,17.10
2023-05-14T10:13:43.003Z,17.10
2023-05-14T10:16:21.114Z,17.30
2023-05-14T10:18:57.917Z,17.30
2023-05-14T10:21:31.570Z,17.40
2023-05-14T10:24:00.468Z,17.30
2023-05-14T10:26:30.252Z,17.40
2023-05-14T10:29:01.884Z,17.40
2023-05-14T10:31:50.533Z,17.40
2023-05-14T10:34:43.414Z,17.50
2023-05-14T10:37:14.985Z,17.60
2023-05-14T10:39:48.986Z,17.60
2023-05-14T10:42:22.193Z,17.70
2023-05-14T10:44:58.869Z,17.80
2023-05-14T10:47:29.489Z,17.70
2023-05-14T10:50:06.978Z,17.80
2023-05-14T10:52:37.621Z,17.80
2023-05-14T10:55:09.231Z,17.80
2023-05-14T10:57:41.168Z,17.80
2023-05-14T11:00:14.570Z,17.70
2023-05-14T11:02:45.491Z,17.70
2023-05-14T11:05:20.089Z,17.70
2023-05-14T11:07:51.230Z,17.80
2023-05-14T11:10:22.516Z,17.80
2023-05-14T11:12:54.016Z,17.70
2023-05-14T11:15:28.503Z,17.70
2023-05-14T11:17:57.331Z,17.80
2023-05-14T11:20:26.165Z,17.90
2023-05-14T11:22:55.410Z,17.90
2023-05-14T11:25:25.947Z,17.90
2023-05-14T11:27:58.830Z,17.90
2023-05-14T11:30:29.505Z,18.00
2023-05-14T11:33:00.599Z,18.10
2023-05-14T11:35:31.628Z,18.00
2023-05-14T11:38:00.324Z,18.00
2023-05-14T11:40:29.883Z,18.10
2023-05-14T11:43:03.671Z,18.10
2023-05-14T11:45:34.298Z,18.20
2023-05-14T11:48:03.399Z,18.20
2023-05-14T11:50:32.083Z,18.20
2023-05-14T11:53:00.813Z,18.20
2023-05-14T11:55:30.528Z,18.10
2023-05-14T11:57:59.264Z,18.10
2023-05-14T12:00:28.769Z,18.20
2023-05-14T12:02:59.411Z,18.30
2023-05-14T12:05:28.146Z,18.40
2023-05-14T12:07:57.683Z,18.60
2023-05-14T12:10:26.543Z,18.70
2023-05-14T12:12:55.733Z,18.70
2023-05-14T12:15:24.958Z,18.80
2023-05-14T12:17:53.738Z,18.90
2023-05-14T12:20:26.406Z,18.90
2023-05-14T12:22:56.531Z,18.80
2023-05-14T12:25:27.615Z,18.80
2023-05-14T12:27:56.519Z,18.90
2023-05-14T12:30:25.278Z,18.70
2023-05-14T12:32:53.979Z,18.80
2023-05-14T12:35:24.456Z,18.70
2023-05-14T12:37:56.317Z,18.80
2023-05-14T12:40:25.517Z,18.70
2023-05-14T12:42:56.688Z,18.60
2023-05-14T12:45:26.051Z,18.70
2023-05-14T12:47:54.907Z,18.80
2023-05-14T12:50:28.307Z,18.70
2023-05-14T12:53:00.612Z,18.80
2023-05-14T12:55:29.462Z,19.00
2023-05-14T12:57:58.273Z,19.20
2023-05-14T13:00:27.122Z,19.20
2023-05-14T13:02:55.859Z,19.60
2023-05-14T13:05:24.742Z,20.20
2023-05-14T13:07:55.752Z,20.40
2023-05-14T13:10:24.872Z,20.90
2023-05-14T13:12:53.775Z,21.30
2023-05-14T13:15:22.730Z,21.20
2023-05-14T13:17:51.692Z,20.90
2023-05-14T13:20:20.572Z,20.30
2023-05-14T13:22:49.346Z,20.00
2023-05-14T13:25:19.680Z,20.00
2023-05-14T13:27:50.811Z,19.70
2023-05-14T13:30:20.092Z,19.80
2023-05-14T13:32:48.878Z,19.70
2023-05-14T13:35:17.660Z,19.70
2023-05-14T13:37:46.587Z,19.60
2023-05-14T13:40:15.490Z,19.50
2023-05-14T13:42:45.745Z,19.50
2023-05-14T13:45:14.623Z,19.50
2023-05-14T13:47:43.367Z,19.40
2023-05-14T13:50:12.606Z,19.20
2023-05-14T13:52:41.306Z,19.30
2023-05-14T13:55:10.835Z,19.20
2023-05-14T13:57:41.773Z,19.00
2023-05-14T14:00:13.592Z,19.00
2023-05-14T14:02:42.297Z,19.10
2023-05-14T14:05:11.458Z,19.10
2023-05-14T14:07:40.755Z,19.10
2023-05-14T14:10:11.404Z,19.20
2023-05-14T14:12:40.760Z,19.20
2023-05-14T14:15:12.733Z,19.10
2023-05-14T14:17:42.009Z,18.90
2023-05-14T14:20:11.767Z,18.80
2023-05-14T14:22:42.317Z,18.90
2023-05-14T14:25:12.696Z,18.90
2023-05-14T14:27:41.766Z,19.00
2023-05-14T14:30:16.671Z,18.90
2023-05-14T14:32:46.152Z,18.80
2023-05-14T14:35:17.491Z,18.90
2023-05-14T14:37:49.412Z,18.80
2023-05-14T14:40:19.969Z,18.80
2023-05-14T14:42:48.806Z,18.90
2023-05-14T14:45:19.319Z,18.90
2023-05-14T14:47:50.436Z,18.90
2023-05-14T14:50:19.631Z,18.90
2023-05-14T14:52:48.412Z,18.90
2023-05-14T14:55:18.184Z,18.60
2023-05-14T14:57:46.941Z,18.60
2023-05-14T15:00:21.260Z,18.60
2023-05-14T15:02:50.064Z,18.60
2023-05-14T15:05:18.912Z,18.70
2023-05-14T15:07:47.654Z,18.60
2023-05-14T15:10:17.496Z,18.60
2023-05-14T15:12:46.335Z,18.70
2023-05-14T15:15:15.138Z,18.60
2023-05-14T15:17:45.334Z,18.50
2023-05-14T15:20:15.914Z,18.40
2023-05-14T15:22:46.382Z,18.40
2023-05-14T15:25:15.636Z,18.40
2023-05-14T15:27:45.715Z,18.40
2023-05-14T15:30:20.427Z,18.30
2023-05-14T15:32:51.169Z,18.30
2023-05-14T15:35:22.079Z,18.40
2023-05-14T15:37:51.681Z,18.40
2023-05-14T15:40:21.504Z,18.40
2023-05-14T15:42:50.517Z,18.50
2023-05-14T15:45:19.434Z,18.50
2023-05-14T15:47:49.829Z,18.50
2023-05-14T15:50:19.094Z,18.50
2023-05-14T15:52:48.260Z,18.30
2023-05-14T15:55:20.804Z,18.20
2023-05-14T15:57:49.509Z,18.20
2023-05-14T16:00:19.743Z,18.00
2023-05-14T16:02:52.825Z,18.10
2023-05-14T16:05:22.491Z,18.20
2023-05-14T16:07:53.134Z,18.20
2023-05-14T16:10:22.894Z,18.20
2023-05-14T16:12:51.985Z,18.20
2023-05-14T16:15:20.936Z,18.20
2023-05-14T16:17:51.140Z,18.10
2023-05-14T16:20:23.367Z,18.10
2023-05-14T16:22:53.107Z,18.00
2023-05-14T16:25:22.920Z,18.10
2023-05-14T16:27:53.045Z,18.10
2023-05-14T16:30:22.476Z,18.10
2023-05-14T16:32:54.020Z,18.20
2023-05-14T16:35:24.127Z,18.20
2023-05-14T16:37:53.043Z,18.20
2023-05-14T16:40:23.353Z,18.10
2023-05-14T16:42:52.658Z,18.00
2023-05-14T16:45:21.954Z,18.00
2023-05-14T16:47:53.178Z,18.10
2023-05-14T16:50:23.491Z,18.10
2023-05-14T16:52:55.299Z,18.10
2023-05-14T16:55:26.913Z,18.00
2023-05-14T16:57:56.547Z,17.70
2023-05-14T17:00:27.132Z,17.60
2023-05-14T17:02:58.864Z,17.50
2023-05-14T17:05:30.035Z,17.50
2023-05-14T17:07:59.655Z,17.20
2023-05-14T17:10:31.287Z,17.20
2023-05-14T17:13:02.375Z,17.00
2023-05-14T17:15:31.562Z,17.20
2023-05-14T17:18:02.358Z,17.30
2023-05-14T17:20:35.592Z,17.10
2023-05-14T17:23:04.519Z,17.20
2023-05-14T17:25:34.404Z,17.20
2023-05-14T17:28:03.869Z,17.10
2023-05-14T17:30:33.488Z,17.20
2023-05-14T17:33:04.433Z,17.20
2023-05-14T17:35:36.378Z,17.20
2023-05-14T17:38:05.409Z,17.20
2023-05-14T17:40:34.770Z,17.30
2023-05-14T17:43:03.779Z,17.40
2023-05-14T17:45:42.640Z,17.40
2023-05-14T17:48:17.058Z,17.40
2023-05-14T17:50:46.284Z,17.40
2023-05-14T17:53:16.163Z,17.40
2023-05-14T17:55:45.312Z,17.30
2023-05-14T17:58:15.979Z,17.30
2023-05-14T18:00:45.135Z,17.30
2023-05-14T18:03:14.318Z,17.30
2023-05-14T18:05:44.941Z,17.30
2023-05-14T18:08:14.644Z,17.30
2023-05-14T18:10:43.374Z,17.30
2023-05-14T18:13:12.227Z,17.40
2023-05-14T18:15:42.015Z,17.40
2023-05-14T18:18:10.947Z,17.20
2023-05-14T18:20:39.900Z,17.30
2023-05-14T18:23:10.666Z,17.30
2023-05-14T18:25:40.591Z,17.20
2023-05-14T18:28:10.466Z,17.20
2023-05-14T18:30:39.199Z,17.20
2023-05-14T18:33:08.215Z,17.20
2023-05-14T18:35:37.392Z,17.20
2023-05-14T18:38:08.115Z,17.10
2023-05-14T18:40:38.283Z,17.10
2023-05-14T18:43:08.467Z,17.10
2023-05-14T18:45:37.319Z,17.00
2023-05-14T18:48:07.387Z,16.80
2023-05-14T18:50:38.693Z,16.60
2023-05-14T18:53:08.524Z,16.50
2023-05-14T18:55:39.132Z,16.60
2023-05-14T18:58:07.904Z,16.60
2023-05-14T19:00:37.725Z,16.50
2023-05-14T19:03:07.685Z,16.60
2023-05-14T19:05:37.598Z,16.60
2023-05-14T19:08:07.325Z,16.60
2023-05-14T19:10:37.612Z,16.50
2023-05-14T19:13:07.936Z,16.50
2023-05-14T19:15:37.175Z,16.50
2023-05-14T19:18:06.645Z,16.50
2023-05-14T19:20:38.370Z,16.40
2023-05-14T19:23:07.259Z,16.40
2023-05-14T19:25:37.694Z,16.50
2023-05-14T19:28:06.921Z,16.40
2023-05-14T19:30:35.735Z,16.40
2023-05-14T19:33:04.562Z,16.40
2023-05-14T19:35:33.366Z,16.40
2023-05-14T19:38:02.037Z,16.30
2023-05-14T19:40:31.853Z,16.20
2023-05-14T19:43:02.074Z,16.30
2023-05-14T19:45:31.331Z,16.20
2023-05-14T19:48:00.203Z,16.00
2023-05-14T19:50:29.081Z,16.10
2023-05-14T19:52:57.927Z,15.90
2023-05-14T19:55:26.965Z,15.90
2023-05-14T19:57:55.809Z,15.90
2023-05-14T20:00:26.700Z,15.60
2023-05-14T20:02:59.491Z,15.70
2023-05-14T20:05:28.538Z,15.70
2023-05-14T20:07:57.239Z,15.60
2023-05-14T20:10:26.019Z,15.60
2023-05-14T20:12:54.906Z,15.40
2023-05-14T20:15:23.591Z,15.20
2023-05-14T20:17:54.106Z,15.30
2023-05-14T20:20:24.580Z,15.20
2023-05-14T20:22:53.420Z,15.10
2023-05-14T20:25:22.084Z,15.10
2023-05-14T20:27:52.569Z,15.20
2023-05-14T20:30:21.422Z,15.20
2023-05-14T20:32:50.637Z,15.10
2023-05-14T20:35:20.854Z,15.00
2023-05-14T20:37:50.492Z,15.00
2023-05-14T20:40:19.418Z,14.90
2023-05-14T20:42:50.359Z,15.00
2023-05-14T20:45:19.469Z,15.00
2023-05-14T20:47:48.214Z,15.00
2023-05-14T20:50:16.976Z,14.90
2023-05-14T20:52:47.255Z,14.90
2023-05-14T20:55:16.237Z,14.90
2023-05-14T20:57:44.828Z,14.80
2023-05-14T21:00:24.340Z,14.80
2023-05-14T21:02:53.078Z,14.90
2023-05-14T21:05:23.061Z,14.80
2023-05-14T21:07:53.567Z,14.80
2023-05-14T21:10:22.586Z,14.70
2023-05-14T21:12:52.440Z,14.70
2023-05-14T21:15:21.209Z,14.70
2023-05-14T21:17:49.919Z,14.70
2023-05-14T21:20:18.596Z,14.70
2023-05-14T21:22:47.251Z,14.70
2023-05-14T21:25:17.526Z,14.60
2023-05-14T21:27:46.401Z,14.60
2023-05-14T21:30:16.158Z,14.60
2023-05-14T21:32:44.815Z,14.60
2023-05-14T21:35:13.478Z,14.40
2023-05-14T21:37:42.371Z,14.40
2023-05-14T21:40:13.308Z,14.30
2023-05-14T21:42:43.338Z,14.20
2023-05-14T21:45:12.761Z,14.20
2023-05-14T21:47:41.464Z,14.30
2023-05-14T21:50:11.039Z,14.10
2023-05-14T21:52:39.755Z,14.10
2023-05-14T21:55:09.341Z,14.20
2023-05-14T21:57:38.187Z,14.10
2023-05-14T22:00:13.019Z,13.90
2023-05-14T22:02:43.758Z,13.80
2023-05-14T22:05:12.526Z,13.70
2023-05-14T22:07:41.559Z,13.90
2023-05-14T22:10:11.465Z,13.90
2023-05-14T22:12:40.169Z,13.80
2023-05-14T22:15:12.469Z,13.60
2023-05-14T22:17:41.437Z,13.50
2023-05-14T22:20:11.369Z,13.60
2023-05-14T22:22:40.624Z,13.70
2023-05-14T22:25:10.137Z,13.80
2023-05-14T22:27:38.828Z,13.70
2023-05-14T22:30:11.574Z,13.60
2023-05-14T22:32:40.568Z,13.60
2023-05-14T22:35:11.340Z,13.70
2023-05-14T22:53:14.834Z,13.40
2023-05-14T22:55:43.692Z,13.50
2023-05-14T22:58:12.946Z,13.60
2023-05-14T23:00:41.664Z,13.60
2023-05-14T23:03:10.345Z,13.60
2023-05-14T23:05:39.518Z,13.60
2023-05-14T23:08:08.343Z,13.50
2023-05-14T23:10:38.358Z,13.50
2023-05-14T23:13:07.029Z,13.50
2023-05-14T23:15:35.854Z,13.50
2023-05-14T23:18:04.823Z,13.60
2023-05-14T23:20:33.660Z,13.60
2023-05-14T23:23:02.360Z,13.60
2023-05-14T23:25:31.217Z,13.50
2023-05-14T23:28:01.708Z,13.50
2023-05-14T23:30:30.485Z,13.60
2023-05-14T23:32:59.174Z,13.50
2023-05-14T23:35:27.988Z,13.50
2023-05-14T23:37:56.865Z,13.40
2023-05-14T23:40:25.525Z,13.40
2023-05-14T23:42:54.315Z,13.30
2023-05-14T23:45:24.641Z,13.40
2023-05-14T23:47:54.458Z,13.50
2023-05-14T23:50:23.201Z,13.50
2023-05-14T23:52:53.202Z,13.40
2023-05-14T23:55:22.271Z,13.40
2023-05-14T23:57:51.262Z,13.40
